Time;durP1;ratioP1;P1;durP2;ratioP2;P2;SDS_P1;SDS_P2;PMS_P1;PMS_P2;Temp;Humidity;BMP_temperature;BMP_pressure;BME280_temperature;BME280_humidity;BME280_pressure;Samples;Min_cycle;Max_cycle;Signal;HPM_P1;HPM_P2
2023/07/18 00:00:25;;;;;;;3.90;3.70;;;;;;;27.89;44.98;99553.63;5074683;28;20188;-69
2023/07/18 00:02:51;;;;;;;7.27;4.70;;;;;;;27.88;44.86;99559.38;5074784;28;20278;-70
2023/07/18 00:05:18;;;;;;;4.97;4.10;;;;;;;27.63;45.39;99551.72;5074365;28;20602;-70
2023/07/18 00:07:45;;;;;;;4.50;4.10;;;;;;;27.65;45.55;99549.50;5074635;28;20253;-70
2023/07/18 00:10:13;;;;;;;5.30;3.40;;;;;;;27.61;45.57;99553.97;5074477;28;20192;-69
2023/07/18 00:12:41;;;;;;;3.87;3.33;;;;;;;27.61;45.67;99548.50;5074728;28;20195;-69
2023/07/18 00:15:09;;;;;;;4.27;3.40;;;;;;;27.63;45.53;99557.19;5074121;28;20241;-69
2023/07/18 00:17:36;;;;;;;4.73;3.23;;;;;;;27.62;45.57;99555.56;5073981;28;20739;-70
2023/07/18 00:20:08;;;;;;;4.00;3.70;;;;;;;27.59;45.79;99553.44;5074475;28;20199;-69
2023/07/18 00:22:35;;;;;;;3.97;3.53;;;;;;;27.55;45.76;99538.78;5074502;28;20195;-70
2023/07/18 00:25:02;;;;;;;4.53;3.80;;;;;;;27.56;45.90;99545.88;5073943;28;20732;-70
2023/07/18 00:27:28;;;;;;;4.03;3.67;;;;;;;27.20;47.23;99540.31;5074011;28;20659;-69
2023/07/18 00:29:56;;;;;;;4.20;3.50;;;;;;;27.10;47.58;99550.59;5074141;28;20249;-71
2023/07/18 00:32:23;;;;;;;5.13;3.37;;;;;;;26.79;48.27;99552.28;5074118;28;20196;-70
2023/07/18 00:34:50;;;;;;;4.20;3.53;;;;;;;26.92;48.14;99546.03;5073471;28;20228;-70
2023/07/18 00:37:17;;;;;;;4.90;4.03;;;;;;;27.05;48.06;99547.97;5073773;28;20227;-71
2023/07/18 00:39:43;;;;;;;3.80;3.60;;;;;;;27.15;47.83;99547.78;5074069;28;20196;-71
2023/07/18 00:42:10;;;;;;;4.00;3.70;;;;;;;27.13;47.69;99536.34;5073637;28;20188;-70
2023/07/18 00:44:37;;;;;;;4.83;3.97;;;;;;;27.15;47.74;99534.94;5073547;28;20200;-70
2023/07/18 00:47:06;;;;;;;4.60;3.80;;;;;;;26.99;47.93;99535.56;5073644;28;20222;-71
2023/07/18 00:49:33;;;;;;;3.93;3.63;;;;;;;27.09;47.80;99544.34;5073674;28;20199;-70
2023/07/18 00:52:01;;;;;;;4.20;3.80;;;;;;;26.94;48.44;99539.19;5073807;28;20274;-70
2023/07/18 00:54:29;;;;;;;4.47;3.80;;;;;;;26.84;48.55;99542.09;5073738;28;20196;-70
2023/07/18 00:56:56;;;;;;;3.90;3.70;;;;;;;26.81;48.64;99533.69;5073244;28;20223;-70
2023/07/18 00:59:25;;;;;;;8.30;3.73;;;;;;;26.79;48.39;99530.47;5072839;28;20240;-69
2023/07/18 01:01:51;;;;;;;4.57;4.13;;;;;;;26.84;48.38;99535.84;5073459;28;20245;-69
2023/07/18 01:04:19;;;;;;;4.27;3.97;;;;;;;26.68;48.57;99534.50;5073259;28;20192;-69
2023/07/18 01:06:47;;;;;;;4.10;3.70;;;;;;;26.52;49.31;99524.94;5073773;28;20231;-69
2023/07/18 01:09:14;;;;;;;4.97;3.87;;;;;;;26.47;49.43;99522.31;5073290;28;20192;-70
2023/07/18 01:11:41;;;;;;;7.30;4.40;;;;;;;26.53;48.95;99521.09;5073264;28;20236;-69
2023/07/18 01:14:09;;;;;;;12.30;4.07;;;;;;;26.64;48.99;99528.03;5073186;28;20242;-69
2023/07/18 01:16:36;;;;;;;5.47;3.83;;;;;;;26.61;48.97;99521.25;5073311;28;20231;-69
2023/07/18 01:19:03;;;;;;;8.10;3.93;;;;;;;26.69;49.65;99514.28;5072798;28;20655;-70
2023/07/18 01:21:31;;;;;;;3.47;3.17;;;;;;;26.74;49.41;99516.94;5072915;28;20655;-69
2023/07/18 01:23:58;;;;;;;4.00;3.63;;;;;;;26.85;49.10;99510.19;5072728;28;20741;-70
2023/07/18 01:26:25;;;;;;;4.97;3.50;;;;;;;26.92;49.05;99499.69;5072962;28;20659;-70
2023/07/18 01:28:51;;;;;;;4.17;3.77;;;;;;;26.96;48.48;99503.44;5073162;28;20253;-70
2023/07/18 01:31:18;;;;;;;5.30;3.87;;;;;;;26.92;48.14;99497.78;5073149;28;20188;-70
2023/07/18 01:33:46;;;;;;;5.13;4.30;;;;;;;26.95;48.07;99496.38;5072489;28;20196;-70
2023/07/18 01:36:13;;;;;;;5.17;4.30;;;;;;;26.90;47.97;99493.75;5073031;28;20219;-69
2023/07/18 01:38:41;;;;;;;5.60;4.43;;;;;;;26.63;48.95;99488.25;5072861;28;20192;-70
2023/07/18 01:41:08;;;;;;;7.03;4.57;;;;;;;26.62;49.00;99492.09;5072719;28;20265;-68
2023/07/18 01:43:35;;;;;;;4.10;3.77;;;;;;;26.66;49.05;99487.66;5072674;28;20192;-69
2023/07/18 01:46:02;;;;;;;4.93;4.07;;;;;;;26.64;49.06;99496.13;5072821;28;20208;-69
2023/07/18 01:48:29;;;;;;;4.57;4.17;;;;;;;26.36;49.63;99482.72;5072504;28;20198;-69
2023/07/18 01:50:58;;;;;;;7.27;4.13;;;;;;;26.45;49.28;99486.38;5072775;28;20188;-68
2023/07/18 01:53:26;;;;;;;4.50;4.10;;;;;;;26.45;49.76;99494.56;5072201;28;20592;-69
2023/07/18 01:55:54;;;;;;;5.40;4.07;;;;;;;26.46;49.79;99486.06;5072589;28;20192;-70
2023/07/18 01:58:21;;;;;;;7.17;3.97;;;;;;;26.48;49.50;99485.75;5072182;28;20196;-70
2023/07/18 02:00:47;;;;;;;4.40;4.00;;;;;;;26.41;49.64;99486.16;5072415;28;20273;-69
2023/07/18 02:03:14;;;;;;;5.17;4.17;;;;;;;26.35;50.19;99475.66;5072477;28;20300;-69
2023/07/18 02:05:41;;;;;;;4.60;4.00;;;;;;;26.15;50.09;99473.25;5072265;28;20196;-69
2023/07/18 02:08:08;;;;;;;4.53;4.17;;;;;;;26.13;50.45;99478.22;5071982;28;20196;-70
2023/07/18 02:10:34;;;;;;;6.40;4.67;;;;;;;26.10;50.62;99484.25;5071815;28;20214;-70
2023/07/18 02:13:03;;;;;;;6.20;5.10;;;;;;;26.08;50.59;99476.38;5072019;28;20196;-69
2023/07/18 02:15:29;;;;;;;4.97;4.57;;;;;;;26.13;50.34;99479.00;5072126;28;20196;-70
2023/07/18 02:17:57;;;;;;;5.23;4.73;;;;;;;26.12;50.48;99485.56;5071959;28;20281;-70
2023/07/18 02:20:24;;;;;;;4.50;4.10;;;;;;;26.18;50.02;99489.03;5072051;28;20257;-70
2023/07/18 02:22:51;;;;;;;7.70;4.67;;;;;;;26.07;50.26;99484.84;5071835;28;20726;-70
2023/07/18 02:25:18;;;;;;;7.07;4.77;;;;;;;26.05;50.49;99490.56;5071911;28;20257;-70
2023/07/18 02:27:45;;;;;;;4.90;4.47;;;;;;;26.09;50.23;99491.59;5071922;28;20267;-70
2023/07/18 02:30:14;;;;;;;4.70;4.30;;;;;;;26.19;49.83;99493.34;5071957;28;20192;-69
2023/07/18 02:32:41;;;;;;;4.60;4.17;;;;;;;26.25;50.17;99497.63;5071622;28;20678;-71
2023/07/18 02:35:09;;;;;;;4.40;4.00;;;;;;;26.30;49.49;99494.81;5071932;28;20239;-70
2023/07/18 02:37:36;;;;;;;7.47;4.63;;;;;;;26.32;49.56;99498.03;5071722;28;20306;-71
2023/07/18 02:40:08;;;;;;;5.47;4.57;;;;;;;26.37;49.28;99500.69;5071895;28;20211;-71
2023/07/18 02:42:35;;;;;;;4.90;4.30;;;;;;;26.40;49.82;99500.91;5071776;28;20180;-72
2023/07/18 02:45:02;;;;;;;6.47;4.97;;;;;;;26.42;49.26;99497.88;5071592;28;20664;-70
2023/07/18 02:47:31;;;;;;;5.53;5.00;;;;;;;26.40;49.48;99506.34;5071569;28;20595;-70
2023/07/18 02:49:57;;;;;;;5.70;5.33;;;;;;;26.41;49.63;99494.31;5071751;28;20200;-71
2023/07/18 02:52:24;;;;;;;9.57;6.30;;;;;;;26.41;49.72;99499.00;5071549;28;20192;-70
2023/07/18 02:54:51;;;;;;;18.33;14.60;;;;;;;26.40;49.61;99505.53;5071314;28;20192;-69
2023/07/18 02:57:18;;;;;;;19.73;17.63;;;;;;;26.29;49.54;99493.19;5071366;28;20257;-69
2023/07/18 02:59:45;;;;;;;26.83;20.33;;;;;;;26.32;49.84;99500.75;5071438;28;20194;-70
2023/07/18 03:02:11;;;;;;;24.57;20.43;;;;;;;26.33;49.52;99500.47;5071418;28;20246;-69
2023/07/18 03:04:40;;;;;;;22.07;19.73;;;;;;;26.26;49.86;99505.50;5071513;28;20206;-69
2023/07/18 03:07:07;;;;;;;28.63;21.60;;;;;;;26.28;50.04;99514.16;5071211;28;20252;-70
2023/07/18 03:09:34;;;;;;;32.40;22.33;;;;;;;26.34;49.87;99506.72;5071171;28;20196;-69
2023/07/18 03:12:02;;;;;;;35.90;27.93;;;;;;;26.37;49.45;99506.13;5071659;28;20192;-69
2023/07/18 03:14:29;;;;;;;37.83;25.53;;;;;;;26.38;49.81;99505.03;5071370;28;20628;-69
2023/07/18 03:16:56;;;;;;;42.40;31.13;;;;;;;26.40;49.69;99508.25;5071286;28;20220;-70
2023/07/18 03:19:22;;;;;;;37.70;29.40;;;;;;;26.43;49.26;99507.66;5071208;28;20249;-70
2023/07/18 03:21:50;;;;;;;44.90;28.40;;;;;;;26.46;49.25;99516.03;5073608;28;20674;-70
2023/07/18 03:24:17;;;;;;;31.23;24.77;;;;;;;26.52;49.59;99509.41;5075286;28;20221;-70
2023/07/18 03:26:44;;;;;;;29.47;23.70;;;;;;;26.65;49.74;99513.28;5075565;28;20257;-70
2023/07/18 03:29:10;;;;;;;33.83;24.33;;;;;;;26.77;51.07;99508.16;5075052;28;20253;-70
2023/07/18 03:31:39;;;;;;;25.47;22.13;;;;;;;26.96;50.50;99515.16;5074809;28;20748;-70
2023/07/18 03:34:06;;;;;;;31.50;23.20;;;;;;;27.13;49.86;99528.19;5075150;28;20223;-70
2023/07/18 03:36:33;;;;;;;30.60;22.07;;;;;;;27.25;49.59;99533.97;5074904;28;20185;-70
2023/07/18 03:39:01;;;;;;;24.13;18.70;;;;;;;27.33;49.45;99525.06;5075132;28;20184;-71
2023/07/18 03:41:28;;;;;;;21.20;16.83;;;;;;;27.48;49.32;99535.69;5074950;28;20199;-71
2023/07/18 03:43:55;;;;;;;26.60;16.27;;;;;;;27.61;48.84;99532.13;5074683;28;20656;-71
2023/07/18 03:46:22;;;;;;;28.33;16.80;;;;;;;27.62;48.50;99526.34;5074380;28;20659;-71
2023/07/18 03:48:51;;;;;;;24.07;15.63;;;;;;;27.55;49.13;99539.59;5074668;28;20287;-70
2023/07/18 03:51:18;;;;;;;19.30;14.07;;;;;;;27.47;49.26;99531.31;5074393;28;20196;-70
2023/07/18 03:53:45;;;;;;;15.30;13.30;;;;;;;27.37;49.65;99542.47;5074317;28;20615;-73
2023/07/18 03:56:15;;;;;;;15.83;12.10;;;;;;;27.39;49.64;99534.75;5074657;28;20200;-70
2023/07/18 03:58:41;;;;;;;17.17;13.37;;;;;;;27.41;50.59;99527.09;5074205;28;20230;-70
2023/07/18 04:01:09;;;;;;;16.47;9.93;;;;;;;27.42;50.07;99534.16;5074409;28;20221;-69
2023/07/18 04:03:36;;;;;;;12.60;9.27;;;;;;;27.19;51.13;99529.72;5074415;28;20667;-69
2023/07/18 04:06:03;;;;;;;10.73;8.33;;;;;;;26.91;52.31;99517.97;5074553;28;20203;-69
2023/07/18 04:08:30;;;;;;;14.60;8.33;;;;;;;26.88;53.17;99523.22;5074248;28;20667;-70
2023/07/18 04:10:57;;;;;;;22.37;8.07;;;;;;;26.89;53.67;99520.19;5074561;28;20192;-70
2023/07/18 04:13:25;;;;;;;14.10;8.87;;;;;;;27.01;53.72;99527.88;5074443;28;20188;-71
2023/07/18 04:15:53;;;;;;;22.77;8.17;;;;;;;27.65;52.60;99519.47;5074170;28;20195;-71
2023/07/18 04:18:19;;;;;;;17.00;7.30;;;;;;;28.39;49.86;99524.28;5074224;28;20233;-71
2023/07/18 04:20:46;;;;;;;10.00;7.50;;;;;;;28.94;48.24;99528.31;5073823;28;20203;-71
2023/07/18 04:23:13;;;;;;;8.87;6.30;;;;;;;29.56;46.67;99529.84;5074129;28;20196;-71
2023/07/18 04:25:56;;;;;;;9.70;7.40;;;;;;;30.05;44.91;99534.13;5073838;28;20694;-68
2023/07/18 04:28:23;;;;;;;10.83;6.77;;;;;;;30.49;44.10;99526.38;5074349;28;20195;-71
2023/07/18 04:30:51;;;;;;;10.57;7.37;;;;;;;30.94;42.75;99530.31;5073744;28;20188;-71
2023/07/18 04:33:18;;;;;;;9.07;6.67;;;;;;;31.27;42.21;99528.56;5072853;28;20192;-72
2023/07/18 04:35:45;;;;;;;8.33;6.73;;;;;;;31.75;40.86;99526.19;5074053;28;20223;-73
2023/07/18 04:38:13;;;;;;;7.70;7.00;;;;;;;32.35;39.86;99523.81;5074064;28;20307;-72
2023/07/18 04:40:40;;;;;;;11.60;7.10;;;;;;;32.87;38.51;99524.88;5073714;28;20192;-72
2023/07/18 04:43:07;;;;;;;16.67;7.60;;;;;;;33.44;37.00;99527.59;5073884;28;20257;-72
2023/07/18 04:45:34;;;;;;;21.50;8.50;;;;;;;33.99;35.52;99526.91;5073747;28;20253;-72
2023/07/18 04:48:02;;;;;;;9.90;7.47;;;;;;;34.49;34.67;99524.47;5073474;28;20249;-72
2023/07/18 04:50:29;;;;;;;8.10;6.97;;;;;;;34.63;34.10;99524.84;5073346;28;20282;-71
2023/07/18 04:52:56;;;;;;;8.13;7.00;;;;;;;34.55;34.74;99525.81;5073473;28;20202;-71
2023/07/18 04:55:23;;;;;;;9.48;6.88;;;;;;;34.86;33.57;99523.13;5073156;28;20196;-71
2023/07/18 04:57:50;;;;;;;8.80;6.47;;;;;;;35.24;32.97;99523.28;5073582;28;20220;-71
2023/07/18 05:00:17;;;;;;;9.60;6.45;;;;;;;35.68;32.15;99528.31;5073331;28;20748;-72
2023/07/18 05:02:44;;;;;;;13.18;7.68;;;;;;;36.17;31.10;99529.41;5073495;28;20203;-72
2023/07/18 05:05:13;;;;;;;9.32;6.95;;;;;;;36.12;30.93;99531.66;5073197;28;20195;-72
2023/07/18 05:07:44;;;;;;;11.80;6.82;;;;;;;36.23;31.30;99532.72;5052844;28;20199;-71
2023/07/18 05:10:11;;;;;;;11.05;7.70;;;;;;;36.76;30.28;99535.38;5053416;28;20652;-72
2023/07/18 05:12:38;;;;;;;9.38;8.50;;;;;;;37.01;30.00;99533.84;5053183;28;20204;-72
2023/07/18 05:15:05;;;;;;;14.55;8.13;;;;;;;36.70;29.63;99527.75;5053122;28;20196;-72
2023/07/18 05:17:32;;;;;;;11.02;8.30;;;;;;;36.87;29.89;99530.81;5053312;28;20227;-71
2023/07/18 05:19:59;;;;;;;11.25;7.63;;;;;;;37.02;29.42;99541.00;5053295;28;20615;-70
2023/07/18 05:22:27;;;;;;;11.93;7.18;;;;;;;37.49;29.14;99535.06;5052922;28;20634;-71
2023/07/18 05:24:54;;;;;;;15.38;7.35;;;;;;;37.77;28.35;99538.28;5053266;28;20572;-71
2023/07/18 05:27:21;;;;;;;11.55;6.70;;;;;;;37.67;28.83;99540.91;5052952;28;20196;-70
2023/07/18 05:29:48;;;;;;;14.73;6.80;;;;;;;37.72;28.41;99543.34;5052949;28;20197;-70
2023/07/18 05:32:15;;;;;;;11.27;6.50;;;;;;;37.79;28.79;99543.44;5052990;28;20216;-70
2023/07/18 05:34:42;;;;;;;12.50;6.55;;;;;;;38.04;28.27;99531.53;5052476;28;20293;-70
2023/07/18 05:37:09;;;;;;;7.93;5.68;;;;;;;38.45;27.69;99540.75;5052298;28;20632;-71
2023/07/18 05:39:37;;;;;;;11.50;5.28;;;;;;;38.35;27.36;99531.13;5052518;28;20210;-71
2023/07/18 05:42:05;;;;;;;20.17;5.72;;;;;;;38.58;27.20;99537.34;5052696;28;20193;-70
2023/07/18 05:44:32;;;;;;;10.43;5.13;;;;;;;38.16;27.65;99530.50;5052239;28;20192;-70
2023/07/18 05:46:59;;;;;;;8.00;4.72;;;;;;;37.78;28.12;99534.31;5052623;28;20254;-70
2023/07/18 05:49:27;;;;;;;12.23;4.75;;;;;;;37.31;28.79;99522.09;5052740;28;20204;-70
2023/07/18 05:51:54;;;;;;;8.90;5.65;;;;;;;37.35;29.37;99517.41;5052479;28;20192;-70
2023/07/18 05:54:21;;;;;;;12.02;5.47;;;;;;;37.31;29.07;99511.78;5052181;28;20656;-71
2023/07/18 05:56:49;;;;;;;7.72;4.70;;;;;;;37.27;28.86;99519.25;5052666;28;20196;-70
2023/07/18 05:59:15;;;;;;;8.73;5.25;;;;;;;37.34;29.22;99505.50;5052682;28;20274;-70
2023/07/18 06:01:42;;;;;;;6.90;5.07;;;;;;;37.60;29.16;99502.75;5052405;28;20201;-70
2023/07/18 06:04:10;;;;;;;11.95;4.97;;;;;;;37.72;29.04;99499.75;5051864;28;20196;-70
2023/07/18 06:06:38;;;;;;;7.45;5.28;;;;;;;37.49;28.48;99501.78;5063906;28;20242;-69
2023/07/18 06:09:05;;;;;;;5.85;5.00;;;;;;;37.44;29.30;99499.34;5072402;28;20257;-70
2023/07/18 06:11:32;;;;;;;5.57;4.70;;;;;;;37.52;28.90;99506.59;5071878;28;20257;-69
2023/07/18 06:14:00;;;;;;;59.75;8.40;;;;;;;37.67;28.40;99497.31;5071980;28;20196;-69
2023/07/18 06:16:27;;;;;;;10.07;4.90;;;;;;;37.58;28.68;99499.53;5071794;28;20646;-69
2023/07/18 06:18:54;;;;;;;8.95;5.53;;;;;;;37.48;28.86;99491.88;5072218;28;20219;-69
2023/07/18 06:21:21;;;;;;;8.55;5.22;;;;;;;37.66;28.43;99481.84;5072164;28;20246;-70
2023/07/18 06:23:49;;;;;;;5.95;5.40;;;;;;;38.04;28.05;99489.91;5071989;28;20195;-69
2023/07/18 06:26:16;;;;;;;5.10;4.63;;;;;;;38.29;27.93;99490.22;5071295;28;20239;-70
2023/07/18 06:28:43;;;;;;;6.53;5.18;;;;;;;38.45;27.65;99488.78;5071535;28;20196;-70
2023/07/18 06:31:12;;;;;;;5.90;5.38;;;;;;;38.38;27.59;99488.72;5072170;28;20200;-70
2023/07/18 06:33:38;;;;;;;6.95;5.35;;;;;;;38.20;27.72;99481.38;5071255;28;20195;-70
2023/07/18 06:36:05;;;;;;;50.85;8.40;;;;;;;38.31;28.09;99482.28;5071821;28;20586;-70
2023/07/18 06:38:32;;;;;;;9.27;5.10;;;;;;;38.60;27.58;99476.69;5071219;28;20600;-70
2023/07/18 06:40:59;;;;;;;6.40;4.85;;;;;;;38.96;26.97;99481.41;5071406;28;20196;-70
2023/07/18 06:43:27;;;;;;;5.55;4.75;;;;;;;38.93;26.70;99473.84;5071873;28;20223;-69
2023/07/18 06:45:54;;;;;;;4.82;4.35;;;;;;;38.99;26.49;99472.28;5071754;28;20195;-69
2023/07/18 06:48:22;;;;;;;5.20;4.65;;;;;;;39.03;26.21;99475.88;5071365;28;20199;-71
2023/07/18 06:50:51;;;;;;;10.98;5.20;;;;;;;38.89;26.48;99467.41;5071756;28;20195;-70
2023/07/18 06:53:19;;;;;;;12.35;5.72;;;;;;;39.09;26.27;99474.34;5071086;28;20697;-71
2023/07/18 06:55:46;;;;;;;9.68;4.78;;;;;;;39.01;26.60;99475.50;5070904;28;20287;-70
2023/07/18 06:58:13;;;;;;;10.00;5.05;;;;;;;38.97;26.38;99471.88;5071309;28;20665;-70
2023/07/18 07:00:41;;;;;;;6.03;4.97;;;;;;;39.06;26.56;99472.34;5071290;28;20249;-69
2023/07/18 07:03:08;;;;;;;6.50;4.90;;;;;;;39.00;26.25;99459.19;5071375;28;20203;-69
2023/07/18 07:05:38;;;;;;;11.02;4.65;;;;;;;39.19;26.26;99462.50;5068159;28;20189;-69
2023/07/18 07:08:08;;;;;;;21.85;5.38;;;;;;;39.33;25.80;99467.38;5051595;28;20307;-70
2023/07/18 07:10:35;;;;;;;5.55;4.97;;;;;;;39.14;26.18;99460.09;5051316;28;20223;-70
2023/07/18 07:13:02;;;;;;;7.47;5.20;;;;;;;38.78;26.56;99463.75;5051232;28;20197;-69
2023/07/18 07:15:28;;;;;;;6.50;4.82;;;;;;;38.96;26.64;99456.41;5051295;28;20679;-69
2023/07/18 07:17:55;;;;;;;10.20;5.50;;;;;;;38.78;26.62;99458.19;5051050;28;20696;-71
2023/07/18 07:20:24;;;;;;;6.15;5.00;;;;;;;38.73;26.40;99450.22;5051024;28;20189;-69
2023/07/18 07:22:53;;;;;;;6.22;4.70;;;;;;;38.30;27.42;99450.16;5051246;28;20201;-69
2023/07/18 07:25:20;;;;;;;8.35;5.72;;;;;;;38.36;27.04;99446.66;5051007;28;20672;-70
2023/07/18 07:27:46;;;;;;;12.43;5.43;;;;;;;37.90;28.05;99439.75;5051233;28;20251;-71
2023/07/18 07:30:15;;;;;;;8.57;5.43;;;;;;;37.77;28.30;99446.75;5051206;28;20197;-69
2023/07/18 07:32:43;;;;;;;9.35;5.90;;;;;;;37.71;28.14;99445.47;5051043;28;20196;-69
2023/07/18 07:35:10;;;;;;;9.30;5.70;;;;;;;37.89;28.46;99443.72;5051275;28;20323;-69
2023/07/18 07:37:40;;;;;;;8.73;6.03;;;;;;;38.14;28.11;99444.84;5051152;28;20197;-69
2023/07/18 07:40:11;;;;;;;7.05;5.82;;;;;;;38.06;28.23;99437.63;5051298;28;20196;-70
2023/07/18 07:42:38;;;;;;;12.25;5.15;;;;;;;37.58;29.49;99426.63;5050682;28;20668;-70
2023/07/18 07:45:06;;;;;;;9.32;4.95;;;;;;;38.01;28.79;99434.34;5051157;28;20246;-70
2023/07/18 07:47:33;;;;;;;9.55;6.50;;;;;;;38.19;28.11;99441.72;5050950;28;20193;-69
2023/07/18 07:50:00;;;;;;;6.03;5.53;;;;;;;38.40;28.10;99438.34;5051153;28;20196;-69
2023/07/18 07:52:27;;;;;;;13.57;6.20;;;;;;;38.80;27.66;99433.59;5050796;28;20189;-70
2023/07/18 07:54:54;;;;;;;6.82;6.05;;;;;;;39.16;27.31;99441.06;5050764;28;20193;-69
2023/07/18 07:57:22;;;;;;;6.95;6.13;;;;;;;39.15;27.22;99433.88;5051056;28;20287;-71
2023/07/18 07:59:50;;;;;;;14.55;6.85;;;;;;;39.23;27.08;99438.31;5050577;28;20225;-70
2023/07/18 08:02:17;;;;;;;6.20;5.60;;;;;;;39.33;26.77;99437.63;5050548;28;20664;-69
2023/07/18 08:04:44;;;;;;;14.32;7.30;;;;;;;39.01;27.04;99433.81;5050702;28;20199;-69
2023/07/18 08:07:10;;;;;;;12.48;6.72;;;;;;;38.90;27.68;99427.34;5068395;28;20187;-70
2023/07/18 08:09:37;;;;;;;7.47;6.78;;;;;;;38.84;27.74;99426.09;5074397;28;20196;-70
2023/07/18 08:12:05;;;;;;;7.03;6.32;;;;;;;39.04;27.26;99427.47;5074013;28;20223;-70
2023/07/18 08:14:34;;;;;;;6.80;6.30;;;;;;;39.24;27.21;99414.91;5073748;28;20207;-72
2023/07/18 08:17:03;;;;;;;6.68;5.75;;;;;;;39.45;27.08;99419.81;5074159;28;20200;-70
2023/07/18 08:19:31;;;;;;;8.50;6.32;;;;;;;39.46;27.01;99419.41;5073813;28;20230;-69
2023/07/18 08:21:58;;;;;;;8.57;6.80;;;;;;;39.33;26.97;99408.97;5074042;28;20227;-69
2023/07/18 08:24:25;;;;;;;8.80;6.97;;;;;;;39.28;27.50;99410.16;5074050;28;20246;-70
2023/07/18 08:26:52;;;;;;;10.55;6.78;;;;;;;39.14;27.66;99414.81;5074303;28;20266;-71
2023/07/18 08:29:18;;;;;;;10.65;6.70;;;;;;;39.32;27.24;99408.16;5074132;28;20195;-70
2023/07/18 08:31:46;;;;;;;7.93;6.10;;;;;;;39.65;26.79;99412.75;5073976;28;20196;-70
2023/07/18 08:34:13;;;;;;;24.42;7.43;;;;;;;39.75;26.74;99407.22;5073601;28;20232;-70
2023/07/18 08:36:40;;;;;;;7.18;6.53;;;;;;;39.49;27.31;99404.75;5073911;28;20626;-70
2023/07/18 08:39:07;;;;;;;8.27;7.32;;;;;;;39.37;27.26;99399.50;5073680;28;20657;-70
2023/07/18 08:41:34;;;;;;;8.02;7.38;;;;;;;39.20;27.72;99400.19;5074103;28;20196;-70
2023/07/18 08:44:01;;;;;;;13.98;7.25;;;;;;;39.42;27.44;99398.31;5073442;28;20201;-69
2023/07/18 08:46:28;;;;;;;9.02;7.78;;;;;;;39.54;27.30;99398.81;5073599;28;20283;-69
2023/07/18 08:48:57;;;;;;;16.25;8.30;;;;;;;39.56;27.21;99390.06;5073606;28;20613;-69
2023/07/18 08:51:24;;;;;;;8.50;7.70;;;;;;;39.47;27.81;99384.84;5073807;28;20188;-69
2023/07/18 08:53:51;;;;;;;10.18;8.27;;;;;;;39.28;28.07;99385.16;5073761;28;20222;-69
2023/07/18 08:56:18;;;;;;;8.93;8.13;;;;;;;39.29;27.64;99383.94;5073906;28;20191;-70
2023/07/18 08:58:44;;;;;;;9.70;7.47;;;;;;;39.56;27.72;99392.84;5073367;28;20216;-69
2023/07/18 09:01:11;;;;;;;8.63;7.93;;;;;;;39.67;27.98;99388.09;5073714;28;20192;-70
2023/07/18 09:03:38;;;;;;;9.95;8.95;;;;;;;39.47;27.89;99379.28;5073248;28;20195;-70
2023/07/18 09:06:17;;;;;;;9.20;8.35;;;;;;;39.57;28.04;99373.00;5065610;28;20254;-69
2023/07/18 09:08:44;;;;;;;9.43;8.63;;;;;;;38.92;28.52;99380.53;5053441;28;20189;-70
2023/07/18 09:11:12;;;;;;;9.10;8.20;;;;;;;38.92;28.80;99375.00;5053233;28;20727;-69
2023/07/18 09:13:40;;;;;;;10.38;9.35;;;;;;;38.61;28.98;99363.63;5053301;28;20193;-69
2023/07/18 09:16:14;;;;;;;9.65;8.13;;;;;;;38.66;29.31;99355.69;5053172;28;20619;-70
2023/07/18 09:18:44;;;;;;;9.50;8.75;;;;;;;38.74;29.52;99360.13;5052537;28;20220;-69
2023/07/18 09:21:13;;;;;;;10.63;9.23;;;;;;;38.99;28.99;99355.56;5053239;28;20258;-70
2023/07/18 09:23:40;;;;;;;10.68;9.48;;;;;;;39.36;28.76;99356.19;5053190;28;20254;-70
2023/07/18 09:26:10;;;;;;;43.72;11.00;;;;;;;39.56;28.80;99360.25;5053130;28;20196;-70
2023/07/18 09:28:37;;;;;;;8.77;8.35;;;;;;;39.61;28.57;99357.13;5053273;28;20204;-69
2023/07/18 09:31:15;;;;;;;14.65;9.20;;;;;;;39.96;28.17;99350.84;5052922;28;20288;-70
2023/07/18 09:33:42;;;;;;;19.98;9.55;;;;;;;40.38;27.78;99346.16;5052769;28;20242;-68
2023/07/18 09:36:17;;;;;;;9.38;8.48;;;;;;;40.54;27.32;99343.78;5053046;28;20263;-70
2023/07/18 09:38:46;;;;;;;10.02;9.15;;;;;;;40.77;26.87;99346.97;5052922;28;20216;-70
2023/07/18 09:41:13;;;;;;;34.03;10.38;;;;;;;40.81;27.26;99352.53;5052404;28;20699;-70
2023/07/18 09:43:42;;;;;;;20.88;10.23;;;;;;;40.80;26.95;99346.19;5052916;28;20223;-70
2023/07/18 09:46:11;;;;;;;13.75;9.63;;;;;;;40.83;27.33;99339.78;5052585;28;20193;-72
2023/07/18 09:48:39;;;;;;;12.77;9.65;;;;;;;41.01;27.01;99333.44;5052717;28;20301;-70
2023/07/18 09:51:09;;;;;;;10.30;9.32;;;;;;;40.49;26.85;99330.25;5052664;28;20238;-70
2023/07/18 09:53:40;;;;;;;14.38;9.50;;;;;;;40.59;27.19;99328.66;5052468;28;20193;-69
2023/07/18 09:56:10;;;;;;;13.85;9.55;;;;;;;40.82;26.42;99332.63;5052639;28;20189;-70
2023/07/18 09:58:39;;;;;;;14.63;9.13;;;;;;;41.01;26.87;99333.44;5052137;28;20254;-70
2023/07/18 10:01:11;;;;;;;13.20;9.30;;;;;;;40.81;26.68;99331.06;5052064;28;20196;-70
2023/07/18 10:03:39;;;;;;;9.25;8.30;;;;;;;40.62;26.56;99320.31;5052242;28;20267;-69
2023/07/18 10:06:10;;;;;;;10.00;9.13;;;;;;;40.82;26.18;99315.13;5059662;28;20187;-70
2023/07/18 10:08:40;;;;;;;9.88;9.13;;;;;;;41.18;25.73;99313.06;5072351;28;20184;-70
2023/07/18 10:11:08;;;;;;;11.50;8.63;;;;;;;41.53;25.69;99307.34;5071959;28;20631;-70
2023/07/18 10:13:41;;;;;;;9.75;8.75;;;;;;;41.28;26.36;99303.84;5071973;28;20191;-70
2023/07/18 10:16:18;;;;;;;9.52;8.88;;;;;;;41.41;26.39;99297.44;5072133;28;20188;-71
2023/07/18 10:18:46;;;;;;;10.88;8.52;;;;;;;41.11;26.33;99296.38;5071941;28;20229;-70
2023/07/18 10:21:13;;;;;;;8.43;8.00;;;;;;;41.08;26.12;99288.78;5071883;28;20231;-70
2023/07/18 10:23:42;;;;;;;8.68;8.02;;;;;;;41.15;26.42;99278.44;5071706;28;20717;-69
2023/07/18 10:26:09;;;;;;;9.45;8.95;;;;;;;40.92;26.51;99278.88;5071642;28;20606;-70
2023/07/18 10:28:42;;;;;;;8.77;8.18;;;;;;;40.59;26.75;99272.94;5071974;28;20242;-70
2023/07/18 10:31:09;;;;;;;9.57;8.68;;;;;;;40.85;26.60;99262.16;5071003;28;20242;-70
2023/07/18 10:33:41;;;;;;;9.98;9.07;;;;;;;41.02;26.62;99279.28;5071670;28;20232;-70
2023/07/18 10:36:24;;;;;;;23.48;10.10;;;;;;;41.38;26.65;99269.56;5071536;28;20211;-70
2023/07/18 10:38:53;;;;;;;9.63;8.88;;;;;;;40.87;26.18;99262.53;5071894;28;20206;-70
2023/07/18 10:41:19;;;;;;;9.40;8.68;;;;;;;40.95;26.77;99255.75;5071677;28;20245;-70
2023/07/18 10:43:48;;;;;;;39.58;10.63;;;;;;;41.17;26.67;99258.47;5071536;28;20741;-70
2023/07/18 10:46:15;;;;;;;10.10;8.35;;;;;;;41.12;26.31;99256.13;5071686;28;20202;-70
2023/07/18 10:48:49;;;;;;;11.30;9.02;;;;;;;41.21;26.11;99259.25;5071925;28;20257;-70
2023/07/18 10:51:16;;;;;;;9.48;8.60;;;;;;;41.01;25.87;99260.97;5071234;28;20190;-70
2023/07/18 10:53:44;;;;;;;8.77;8.00;;;;;;;40.99;26.08;99250.19;5071412;28;20195;-69
2023/07/18 10:56:22;;;;;;;8.05;7.30;;;;;;;41.08;25.96;99249.75;5071260;28;20199;-70
2023/07/18 10:58:51;;;;;;;10.65;8.68;;;;;;;40.50;26.68;99247.50;5071453;28;20261;-71
2023/07/18 11:01:18;;;;;;;16.80;8.20;;;;;;;40.23;26.29;99244.34;5071242;28;20346;-70
2023/07/18 11:03:45;;;;;;;8.73;8.02;;;;;;;40.56;26.37;99245.88;5071596;28;20231;-71
2023/07/18 11:06:14;;;;;;;14.35;8.82;;;;;;;40.72;26.73;99238.72;5062950;28;20271;-71
2023/07/18 11:08:45;;;;;;;8.77;7.90;;;;;;;40.64;26.07;99241.91;5051023;28;20280;-69
2023/07/18 11:11:14;;;;;;;8.10;7.50;;;;;;;40.80;25.79;99251.44;5051015;28;20704;-70
2023/07/18 11:13:43;;;;;;;9.20;8.07;;;;;;;40.83;25.74;99244.25;5051351;28;20198;-70
2023/07/18 11:16:12;;;;;;;7.90;7.50;;;;;;;40.71;26.16;99233.56;5051231;28;20188;-70
2023/07/18 11:18:41;;;;;;;12.18;8.13;;;;;;;40.72;25.90;99235.94;5051163;28;20257;-70
2023/07/18 11:21:09;;;;;;;8.48;7.28;;;;;;;40.77;25.95;99229.94;5050851;28;20721;-70
2023/07/18 11:23:37;;;;;;;7.25;6.05;;;;;;;40.82;25.35;99235.09;5051379;28;20331;-70
2023/07/18 11:26:13;;;;;;;7.40;6.70;;;;;;;40.88;24.85;99233.50;5050844;28;20753;-70
2023/07/18 11:28:42;;;;;;;7.28;6.68;;;;;;;40.82;25.83;99232.31;5050886;28;20199;-70
2023/07/18 11:31:23;;;;;;;9.10;7.07;;;;;;;40.78;25.61;99231.53;5051197;28;20200;-70